TimeCDT,TemperatureF,Dew PointF,Humidity,Sea Level PressureIn,VisibilityMPH,Wind Direction,Wind SpeedMPH,Gust SpeedMPH,PrecipitationIn,Events,Conditions,WindDirDegrees,DateUTC
12:52 AM,60.8,57.2,88,29.96,6.0,Variable,4.6,-,N/A,,Overcast,0,2012-10-13 05:52:00
1:52 AM,64.4,62.6,94,29.94,7.0,South,5.8,-,N/A,,Overcast,180,2012-10-13 06:52:00
2:52 AM,64.9,62.1,90,29.90,7.0,South,9.2,-,0.00,Rain,Light Rain,180,2012-10-13 07:52:00
3:14 AM,66.2,62.6,88,29.89,7.0,South,10.4,-,0.00,,Overcast,190,2012-10-13 08:14:00
3:52 AM,68.0,64.0,87,29.88,9.0,SSW,12.7,-,0.00,Rain,Light Rain,210,2012-10-13 08:52:00
4:15 AM,68.0,64.4,88,29.91,9.0,SSW,11.5,-,0.00,Thunderstorm,Overcast,210,2012-10-13 09:15:00
4:32 AM,68.0,64.4,88,29.91,8.0,SSW,9.2,-,0.00,Rain,Light Rain,210,2012-10-13 09:32:00
4:52 AM,68.0,64.0,87,29.89,7.0,SW,9.2,-,0.00,Rain,Light Rain,220,2012-10-13 09:52:00
5:52 AM,66.2,64.4,94,29.89,4.0,WNW,5.8,-,N/A,Rain,Light Rain,290,2012-10-13 10:52:00
6:22 AM,64.4,60.8,88,29.88,10.0,SW,4.6,-,0.00,,Overcast,230,2012-10-13 11:22:00
6:52 AM,63.0,60.1,90,29.89,10.0,SW,6.9,-,0.00,,Overcast,220,2012-10-13 11:52:00
7:11 AM,62.6,60.8,94,29.89,10.0,SW,8.1,-,0.00,Rain-Thunderstorm,Light Rain,220,2012-10-13 12:11:00
7:23 AM,62.6,60.8,94,29.91,7.0,WSW,8.1,-,0.01,Rain-Thunderstorm,Thunderstorms and Rain,240,2012-10-13 12:23:00
7:52 AM,63.0,61.0,93,29.89,8.0,South,4.6,-,0.06,Rain-Thunderstorm,Light Thunderstorms and Rain,180,2012-10-13 12:52:00
8:49 AM,62.6,60.8,94,29.84,10.0,SSW,5.8,-,0.05,Rain,Light Rain,210,2012-10-13 13:49:00
8:52 AM,62.6,60.8,94,29.84,10.0,SSW,6.9,-,N/A,,Mostly Cloudy,200,2012-10-13 13:52:00
9:52 AM,66.0,62.1,87,29.83,10.0,SSE,16.1,23.0,N/A,,Partly Cloudy,160,2012-10-13 14:52:00
10:52 AM,70.0,63.0,78,29.80,10.0,South,9.2,-,N/A,,Partly Cloudy,180,2012-10-13 15:52:00
11:37 AM,73.4,64.4,73,29.79,10.0,South,20.7,26.5,N/A,,Mostly Cloudy,180,2012-10-13 16:37:00
11:52 AM,73.9,64.0,71,29.77,10.0,South,18.4,25.3,N/A,,Mostly Cloudy,180,2012-10-13 16:52:00
12:18 PM,71.6,64.4,78,29.78,10.0,South,17.3,25.3,N/A,,Overcast,180,2012-10-13 17:18:00
12:52 PM,71.1,64.9,81,29.75,10.0,South,16.1,24.2,N/A,,Overcast,170,2012-10-13 17:52:00
1:05 PM,71.6,64.4,78,29.76,10.0,South,15.0,-,N/A,,Mostly Cloudy,180,2012-10-13 18:05:00
1:52 PM,72.0,66.0,81,29.71,9.0,South,9.2,19.6,N/A,,Overcast,180,2012-10-13 18:52:00
2:01 PM,71.6,66.2,83,29.72,2.5,South,5.8,-,0.03,Rain,Heavy Rain,190,2012-10-13 19:01:00
2:10 PM,71.6,66.2,83,29.71,3.0,South,9.2,17.3,0.04,Rain,Light Rain,180,2012-10-13 19:10:00
2:52 PM,71.6,66.2,83,29.69,4.0,South,10.4,-,N/A,,Overcast,170,2012-10-13 19:52:00
3:52 PM,73.9,69.1,85,29.65,7.0,SSE,11.5,-,0.00,,Mostly Cloudy,160,2012-10-13 20:52:00
4:17 PM,73.4,68.0,83,29.66,9.0,South,9.2,19.6,N/A,,Mostly Cloudy,180,2012-10-13 21:17:00
4:28 PM,73.4,68.0,83,29.65,10.0,South,15.0,20.7,N/A,,Scattered Clouds,170,2012-10-13 21:28:00
4:52 PM,75.0,69.1,82,29.62,10.0,South,11.5,-,N/A,,Clear,180,2012-10-13 21:52:00
5:52 PM,73.9,68.0,82,29.58,10.0,SSE,9.2,-,N/A,,Scattered Clouds,150,2012-10-13 22:52:00
6:44 PM,73.4,68.0,83,29.59,10.0,SSE,8.1,-,N/A,,Mostly Cloudy,160,2012-10-13 23:44:00
6:52 PM,73.0,68.0,84,29.57,10.0,SSE,8.1,-,N/A,,Mostly Cloudy,160,2012-10-13 23:52:00
7:00 PM,73.4,68.0,83,29.58,10.0,SSE,9.2,-,N/A,,Mostly Cloudy,160,2012-10-14 00:00:00
7:42 PM,71.6,68.0,88,29.63,10.0,WNW,10.4,20.7,N/A,,Overcast,290,2012-10-14 00:42:00
7:52 PM,66.0,61.0,84,29.64,10.0,NW,8.1,20.7,N/A,,Overcast,310,2012-10-14 00:52:00
7:56 PM,66.2,60.8,83,29.65,10.0,Variable,6.9,20.7,0.00,Rain,Light Rain,0,2012-10-14 00:56:00
8:52 PM,62.6,59.0,88,29.63,10.0,Calm,Calm,-,N/A,,Partly Cloudy,0,2012-10-14 01:52:00
9:52 PM,62.1,59.0,90,29.61,10.0,Calm,Calm,-,N/A,,Scattered Clouds,0,2012-10-14 02:52:00
10:38 PM,62.6,60.8,94,29.63,10.0,NE,3.5,-,N/A,,Overcast,40,2012-10-14 03:38:00
10:52 PM,63.0,60.1,90,29.60,10.0,NE,5.8,-,N/A,,Overcast,50,2012-10-14 03:52:00
11:05 PM,62.6,60.8,94,29.62,10.0,ENE,5.8,-,N/A,,Mostly Cloudy,70,2012-10-14 04:05:00
11:21 PM,62.6,60.8,94,29.62,10.0,NNE,4.6,-,N/A,,Mostly Cloudy,30,2012-10-14 04:21:00
11:52 PM,62.6,59.0,88,29.59,10.0,NNE,3.5,-,N/A,,Mostly Cloudy,30,2012-10-14 04:52:00